sensor_id;sensor_type;location;lat;lon;timestamp;P1;durP1;ratioP1;P2;durP2;ratioP2
40515;SDS011;26216;53.724;9.898;2023-04-15T00:01:26;2.95;;;2.22;;
40515;SDS011;26216;53.724;9.898;2023-04-15T00:03:53;2.97;;;2.20;;
40515;SDS011;26216;53.724;9.898;2023-04-15T00:06:20;3.80;;;2.72;;
40515;SDS011;26216;53.724;9.898;2023-04-15T00:08:46;4.10;;;3.30;;
40515;SDS011;26216;53.724;9.898;2023-04-15T00:11:13;4.55;;;3.38;;
40515;SDS011;26216;53.724;9.898;2023-04-15T00:13:39;4.00;;;3.00;;
40515;SDS011;26216;53.724;9.898;2023-04-15T00:16:06;2.97;;;2.20;;
40515;SDS011;26216;53.724;9.898;2023-04-15T00:18:32;3.22;;;2.10;;
40515;SDS011;26216;53.724;9.898;2023-04-15T00:20:59;3.20;;;2.47;;
40515;SDS011;26216;53.724;9.898;2023-04-15T00:23:26;4.07;;;3.33;;
40515;SDS011;26216;53.724;9.898;2023-04-15T00:25:52;5.03;;;3.65;;
40515;SDS011;26216;53.724;9.898;2023-04-15T00:28:18;5.22;;;3.67;;
40515;SDS011;26216;53.724;9.898;2023-04-15T00:30:45;3.90;;;3.38;;
40515;SDS011;26216;53.724;9.898;2023-04-15T00:33:12;5.78;;;4.00;;
40515;SDS011;26216;53.724;9.898;2023-04-15T00:35:38;4.57;;;3.63;;
40515;SDS011;26216;53.724;9.898;2023-04-15T00:38:04;4.47;;;3.33;;
40515;SDS011;26216;53.724;9.898;2023-04-15T00:40:32;4.63;;;3.75;;
40515;SDS011;26216;53.724;9.898;2023-04-15T00:42:58;5.72;;;4.30;;
40515;SDS011;26216;53.724;9.898;2023-04-15T00:45:24;4.10;;;3.30;;
40515;SDS011;26216;53.724;9.898;2023-04-15T00:47:52;4.93;;;3.63;;
40515;SDS011;26216;53.724;9.898;2023-04-15T00:50:18;5.35;;;4.65;;
40515;SDS011;26216;53.724;9.898;2023-04-15T00:52:44;5.35;;;4.43;;
40515;SDS011;26216;53.724;9.898;2023-04-15T00:55:10;5.18;;;4.10;;
40515;SDS011;26216;53.724;9.898;2023-04-15T00:57:36;3.55;;;2.75;;
40515;SDS011;26216;53.724;9.898;2023-04-15T01:00:04;4.03;;;3.25;;
40515;SDS011;26216;53.724;9.898;2023-04-15T01:02:32;3.42;;;2.80;;
40515;SDS011;26216;53.724;9.898;2023-04-15T01:04:59;4.35;;;3.33;;
40515;SDS011;26216;53.724;9.898;2023-04-15T01:07:25;4.68;;;3.75;;
40515;SDS011;26216;53.724;9.898;2023-04-15T01:09:51;5.47;;;4.03;;
40515;SDS011;26216;53.724;9.898;2023-04-15T01:12:17;4.50;;;3.55;;
40515;SDS011;26216;53.724;9.898;2023-04-15T01:14:44;5.38;;;4.32;;
40515;SDS011;26216;53.724;9.898;2023-04-15T01:17:10;4.28;;;3.55;;
40515;SDS011;26216;53.724;9.898;2023-04-15T01:19:37;4.43;;;3.67;;
40515;SDS011;26216;53.724;9.898;2023-04-15T01:22:03;4.50;;;3.38;;
40515;SDS011;26216;53.724;9.898;2023-04-15T01:24:30;3.83;;;2.97;;
40515;SDS011;26216;53.724;9.898;2023-04-15T01:26:58;4.65;;;3.38;;
40515;SDS011;26216;53.724;9.898;2023-04-15T01:29:24;5.78;;;3.90;;
40515;SDS011;26216;53.724;9.898;2023-04-15T01:31:53;6.32;;;4.20;;
40515;SDS011;26216;53.724;9.898;2023-04-15T01:34:26;3.83;;;3.08;;
40515;SDS011;26216;53.724;9.898;2023-04-15T01:36:52;4.32;;;3.00;;
40515;SDS011;26216;53.724;9.898;2023-04-15T01:39:18;4.80;;;3.85;;
40515;SDS011;26216;53.724;9.898;2023-04-15T01:41:44;6.22;;;3.92;;
40515;SDS011;26216;53.724;9.898;2023-04-15T01:44:09;3.90;;;3.17;;
40515;SDS011;26216;53.724;9.898;2023-04-15T01:46:35;4.63;;;3.60;;
40515;SDS011;26216;53.724;9.898;2023-04-15T01:49:01;3.38;;;2.55;;
40515;SDS011;26216;53.724;9.898;2023-04-15T01:51:27;4.38;;;2.72;;
40515;SDS011;26216;53.724;9.898;2023-04-15T01:53:53;4.15;;;3.25;;
40515;SDS011;26216;53.724;9.898;2023-04-15T01:56:21;3.90;;;2.70;;
40515;SDS011;26216;53.724;9.898;2023-04-15T01:58:55;3.38;;;2.53;;
40515;SDS011;26216;53.724;9.898;2023-04-15T02:01:21;4.85;;;3.83;;
40515;SDS011;26216;53.724;9.898;2023-04-15T02:03:47;4.10;;;3.40;;
40515;SDS011;26216;53.724;9.898;2023-04-15T02:06:13;4.28;;;3.00;;
40515;SDS011;26216;53.724;9.898;2023-04-15T02:08:39;4.95;;;3.88;;
40515;SDS011;26216;53.724;9.898;2023-04-15T02:11:05;3.97;;;3.58;;
40515;SDS011;26216;53.724;9.898;2023-04-15T02:13:30;4.28;;;3.30;;
40515;SDS011;26216;53.724;9.898;2023-04-15T02:15:56;5.15;;;4.57;;
40515;SDS011;26216;53.724;9.898;2023-04-15T02:18:23;5.70;;;4.38;;
40515;SDS011;26216;53.724;9.898;2023-04-15T02:20:55;4.40;;;3.85;;
40515;SDS011;26216;53.724;9.898;2023-04-15T02:23:22;5.68;;;4.40;;
40515;SDS011;26216;53.724;9.898;2023-04-15T02:25:48;5.95;;;4.75;;
40515;SDS011;26216;53.724;9.898;2023-04-15T02:28:15;4.72;;;3.67;;
40515;SDS011;26216;53.724;9.898;2023-04-15T02:30:40;5.28;;;4.03;;
40515;SDS011;26216;53.724;9.898;2023-04-15T02:33:06;5.15;;;3.95;;
40515;SDS011;26216;53.724;9.898;2023-04-15T02:35:32;5.63;;;4.45;;
40515;SDS011;26216;53.724;9.898;2023-04-15T02:37:58;4.82;;;3.53;;
40515;SDS011;26216;53.724;9.898;2023-04-15T02:40:25;3.97;;;3.00;;
40515;SDS011;26216;53.724;9.898;2023-04-15T02:42:51;4.85;;;4.20;;
40515;SDS011;26216;53.724;9.898;2023-04-15T02:45:17;4.47;;;3.42;;
40515;SDS011;26216;53.724;9.898;2023-04-15T02:47:47;6.78;;;5.47;;
40515;SDS011;26216;53.724;9.898;2023-04-15T02:50:13;5.45;;;4.18;;
40515;SDS011;26216;53.724;9.898;2023-04-15T02:52:39;5.00;;;4.13;;
40515;SDS011;26216;53.724;9.898;2023-04-15T02:55:06;5.25;;;4.18;;
40515;SDS011;26216;53.724;9.898;2023-04-15T02:57:32;6.85;;;5.35;;
40515;SDS011;26216;53.724;9.898;2023-04-15T03:00:00;6.00;;;4.43;;
40515;SDS011;26216;53.724;9.898;2023-04-15T03:02:26;5.95;;;4.30;;
40515;SDS011;26216;53.724;9.898;2023-04-15T03:04:53;6.65;;;4.85;;
40515;SDS011;26216;53.724;9.898;2023-04-15T03:07:19;8.90;;;7.35;;
40515;SDS011;26216;53.724;9.898;2023-04-15T03:09:45;7.15;;;5.72;;
40515;SDS011;26216;53.724;9.898;2023-04-15T03:12:11;8.55;;;6.20;;
40515;SDS011;26216;53.724;9.898;2023-04-15T03:14:37;8.00;;;6.40;;
40515;SDS011;26216;53.724;9.898;2023-04-15T03:17:03;6.05;;;4.75;;
40515;SDS011;26216;53.724;9.898;2023-04-15T03:19:29;5.30;;;4.03;;
40515;SDS011;26216;53.724;9.898;2023-04-15T03:21:55;7.47;;;5.57;;
40515;SDS011;26216;53.724;9.898;2023-04-15T03:24:22;8.40;;;5.90;;
40515;SDS011;26216;53.724;9.898;2023-04-15T03:26:48;8.73;;;6.22;;
40515;SDS011;26216;53.724;9.898;2023-04-15T03:29:14;10.68;;;7.95;;
40515;SDS011;26216;53.724;9.898;2023-04-15T03:31:40;9.20;;;7.25;;
40515;SDS011;26216;53.724;9.898;2023-04-15T03:34:06;10.00;;;7.15;;
40515;SDS011;26216;53.724;9.898;2023-04-15T03:36:32;9.65;;;7.45;;
40515;SDS011;26216;53.724;9.898;2023-04-15T03:38:58;8.77;;;6.80;;
40515;SDS011;26216;53.724;9.898;2023-04-15T03:41:26;10.77;;;7.50;;
40515;SDS011;26216;53.724;9.898;2023-04-15T03:43:53;9.75;;;6.57;;
40515;SDS011;26216;53.724;9.898;2023-04-15T03:46:19;11.48;;;8.43;;
40515;SDS011;26216;53.724;9.898;2023-04-15T03:48:46;9.90;;;7.50;;
40515;SDS011;26216;53.724;9.898;2023-04-15T03:51:12;14.25;;;10.45;;
40515;SDS011;26216;53.724;9.898;2023-04-15T03:53:38;12.75;;;9.60;;
40515;SDS011;26216;53.724;9.898;2023-04-15T03:56:04;9.63;;;7.13;;
40515;SDS011;26216;53.724;9.898;2023-04-15T03:58:30;11.85;;;9.18;;
40515;SDS011;26216;53.724;9.898;2023-04-15T04:00:55;11.10;;;8.52;;
40515;SDS011;26216;53.724;9.898;2023-04-15T04:03:21;11.07;;;8.52;;
40515;SDS011;26216;53.724;9.898;2023-04-15T04:05:47;12.65;;;9.68;;
40515;SDS011;26216;53.724;9.898;2023-04-15T04:08:13;13.20;;;9.52;;
40515;SDS011;26216;53.724;9.898;2023-04-15T04:10:47;12.18;;;8.65;;
40515;SDS011;26216;53.724;9.898;2023-04-15T04:13:13;11.40;;;8.25;;
40515;SDS011;26216;53.724;9.898;2023-04-15T04:15:38;11.55;;;8.40;;
40515;SDS011;26216;53.724;9.898;2023-04-15T04:18:04;11.57;;;8.52;;
40515;SDS011;26216;53.724;9.898;2023-04-15T04:20:30;13.23;;;9.70;;
40515;SDS011;26216;53.724;9.898;2023-04-15T04:22:56;14.95;;;9.73;;
40515;SDS011;26216;53.724;9.898;2023-04-15T04:25:22;13.20;;;10.00;;
40515;SDS011;26216;53.724;9.898;2023-04-15T04:27:48;14.10;;;9.98;;
40515;SDS011;26216;53.724;9.898;2023-04-15T04:30:14;17.70;;;12.38;;
40515;SDS011;26216;53.724;9.898;2023-04-15T04:32:40;14.70;;;10.65;;
40515;SDS011;26216;53.724;9.898;2023-04-15T04:35:06;14.85;;;10.95;;
40515;SDS011;26216;53.724;9.898;2023-04-15T04:37:32;17.15;;;10.18;;
40515;SDS011;26216;53.724;9.898;2023-04-15T04:39:58;20.00;;;13.75;;
40515;SDS011;26216;53.724;9.898;2023-04-15T04:42:24;20.00;;;13.80;;
40515;SDS011;26216;53.724;9.898;2023-04-15T04:44:50;14.93;;;10.38;;
40515;SDS011;26216;53.724;9.898;2023-04-15T04:47:16;17.13;;;13.00;;
40515;SDS011;26216;53.724;9.898;2023-04-15T04:49:42;20.98;;;14.27;;
40515;SDS011;26216;53.724;9.898;2023-04-15T04:52:08;19.60;;;13.90;;
40515;SDS011;26216;53.724;9.898;2023-04-15T04:54:34;22.33;;;14.27;;
40515;SDS011;26216;53.724;9.898;2023-04-15T04:57:00;22.58;;;15.65;;
40515;SDS011;26216;53.724;9.898;2023-04-15T04:59:26;16.85;;;13.00;;
40515;SDS011;26216;53.724;9.898;2023-04-15T05:01:52;18.40;;;14.05;;
40515;SDS011;26216;53.724;9.898;2023-04-15T05:04:18;17.75;;;12.73;;
40515;SDS011;26216;53.724;9.898;2023-04-15T05:06:43;14.55;;;10.45;;
40515;SDS011;26216;53.724;9.898;2023-04-15T05:09:09;15.07;;;10.70;;
40515;SDS011;26216;53.724;9.898;2023-04-15T05:11:35;14.27;;;11.18;;
40515;SDS011;26216;53.724;9.898;2023-04-15T05:14:01;16.50;;;12.52;;
40515;SDS011;26216;53.724;9.898;2023-04-15T05:16:27;15.05;;;11.65;;
40515;SDS011;26216;53.724;9.898;2023-04-15T05:19:00;14.93;;;11.48;;
40515;SDS011;26216;53.724;9.898;2023-04-15T05:21:26;14.07;;;10.48;;
40515;SDS011;26216;53.724;9.898;2023-04-15T05:23:52;12.50;;;10.57;;
40515;SDS011;26216;53.724;9.898;2023-04-15T05:26:18;15.65;;;11.68;;
40515;SDS011;26216;53.724;9.898;2023-04-15T05:28:44;17.48;;;13.52;;
40515;SDS011;26216;53.724;9.898;2023-04-15T05:31:10;18.05;;;13.80;;
40515;SDS011;26216;53.724;9.898;2023-04-15T05:33:36;15.75;;;12.30;;
40515;SDS011;26216;53.724;9.898;2023-04-15T05:36:01;16.10;;;12.23;;
40515;SDS011;26216;53.724;9.898;2023-04-15T05:38:27;15.57;;;12.32;;
40515;SDS011;26216;53.724;9.898;2023-04-15T05:40:53;21.23;;;15.48;;
40515;SDS011;26216;53.724;9.898;2023-04-15T05:43:20;20.45;;;13.77;;
40515;SDS011;26216;53.724;9.898;2023-04-15T05:45:45;17.60;;;13.20;;
40515;SDS011;26216;53.724;9.898;2023-04-15T05:48:11;15.15;;;11.35;;
40515;SDS011;26216;53.724;9.898;2023-04-15T05:50:39;21.17;;;15.23;;
40515;SDS011;26216;53.724;9.898;2023-04-15T05:53:06;18.42;;;13.32;;
40515;SDS011;26216;53.724;9.898;2023-04-15T05:55:32;17.50;;;12.90;;
40515;SDS011;26216;53.724;9.898;2023-04-15T05:57:58;16.95;;;13.50;;
40515;SDS011;26216;53.724;9.898;2023-04-15T06:00:24;18.70;;;14.38;;
40515;SDS011;26216;53.724;9.898;2023-04-15T06:02:50;20.83;;;15.35;;
40515;SDS011;26216;53.724;9.898;2023-04-15T06:05:17;18.70;;;14.55;;
40515;SDS011;26216;53.724;9.898;2023-04-15T06:07:43;23.48;;;17.00;;
40515;SDS011;26216;53.724;9.898;2023-04-15T06:10:09;20.25;;;14.15;;
40515;SDS011;26216;53.724;9.898;2023-04-15T06:12:35;26.15;;;19.23;;
40515;SDS011;26216;53.724;9.898;2023-04-15T06:15:01;23.33;;;18.27;;
40515;SDS011;26216;53.724;9.898;2023-04-15T06:17:26;19.13;;;14.75;;
40515;SDS011;26216;53.724;9.898;2023-04-15T06:19:52;21.15;;;15.35;;
40515;SDS011;26216;53.724;9.898;2023-04-15T06:22:20;24.67;;;19.13;;
40515;SDS011;26216;53.724;9.898;2023-04-15T06:24:47;22.77;;;17.13;;
40515;SDS011;26216;53.724;9.898;2023-04-15T06:27:17;17.60;;;13.88;;
40515;SDS011;26216;53.724;9.898;2023-04-15T06:29:43;23.45;;;16.77;;
40515;SDS011;26216;53.724;9.898;2023-04-15T06:32:09;21.65;;;16.38;;
40515;SDS011;26216;53.724;9.898;2023-04-15T06:34:35;18.63;;;13.30;;
40515;SDS011;26216;53.724;9.898;2023-04-15T06:37:01;22.42;;;16.10;;
40515;SDS011;26216;53.724;9.898;2023-04-15T06:39:27;24.30;;;16.70;;
40515;SDS011;26216;53.724;9.898;2023-04-15T06:41:52;21.95;;;16.58;;
40515;SDS011;26216;53.724;9.898;2023-04-15T06:44:18;29.17;;;20.27;;
40515;SDS011;26216;53.724;9.898;2023-04-15T06:47:04;25.40;;;17.88;;
40515;SDS011;26216;53.724;9.898;2023-04-15T06:49:43;25.17;;;19.30;;
40515;SDS011;26216;53.724;9.898;2023-04-15T06:52:09;25.67;;;19.25;;
40515;SDS011;26216;53.724;9.898;2023-04-15T06:54:35;27.65;;;21.00;;
40515;SDS011;26216;53.724;9.898;2023-04-15T06:57:01;27.58;;;19.25;;
40515;SDS011;26216;53.724;9.898;2023-04-15T06:59:27;21.80;;;16.60;;
40515;SDS011;26216;53.724;9.898;2023-04-15T07:02:00;25.88;;;19.48;;
40515;SDS011;26216;53.724;9.898;2023-04-15T07:04:26;27.35;;;20.27;;
40515;SDS011;26216;53.724;9.898;2023-04-15T07:06:52;22.63;;;16.95;;
40515;SDS011;26216;53.724;9.898;2023-04-15T07:09:20;20.77;;;14.52;;
40515;SDS011;26216;53.724;9.898;2023-04-15T07:11:47;27.58;;;19.67;;
40515;SDS011;26216;53.724;9.898;2023-04-15T07:14:13;24.30;;;18.27;;
40515;SDS011;26216;53.724;9.898;2023-04-15T07:16:39;24.38;;;18.45;;
40515;SDS011;26216;53.724;9.898;2023-04-15T07:19:05;31.52;;;22.40;;
40515;SDS011;26216;53.724;9.898;2023-04-15T07:21:31;27.92;;;21.70;;
40515;SDS011;26216;53.724;9.898;2023-04-15T07:23:57;21.98;;;16.15;;
40515;SDS011;26216;53.724;9.898;2023-04-15T07:26:23;22.23;;;17.02;;
40515;SDS011;26216;53.724;9.898;2023-04-15T07:28:49;23.65;;;18.92;;
40515;SDS011;26216;53.724;9.898;2023-04-15T07:31:15;23.98;;;18.08;;
40515;SDS011;26216;53.724;9.898;2023-04-15T07:33:41;22.02;;;16.90;;
40515;SDS011;26216;53.724;9.898;2023-04-15T07:36:08;22.98;;;17.65;;
40515;SDS011;26216;53.724;9.898;2023-04-15T07:38:34;25.98;;;19.10;;
40515;SDS011;26216;53.724;9.898;2023-04-15T07:41:00;25.52;;;19.83;;
40515;SDS011;26216;53.724;9.898;2023-04-15T07:43:26;21.63;;;16.92;;
40515;SDS011;26216;53.724;9.898;2023-04-15T07:45:52;28.58;;;20.67;;
40515;SDS011;26216;53.724;9.898;2023-04-15T07:48:19;24.80;;;19.42;;
40515;SDS011;26216;53.724;9.898;2023-04-15T07:50:45;29.50;;;22.13;;
40515;SDS011;26216;53.724;9.898;2023-04-15T07:53:11;29.80;;;21.38;;
40515;SDS011;26216;53.724;9.898;2023-04-15T07:55:37;22.60;;;16.77;;
40515;SDS011;26216;53.724;9.898;2023-04-15T07:58:03;22.58;;;17.20;;
40515;SDS011;26216;53.724;9.898;2023-04-15T08:00:29;24.20;;;19.08;;
40515;SDS011;26216;53.724;9.898;2023-04-15T08:03:02;24.55;;;18.05;;
40515;SDS011;26216;53.724;9.898;2023-04-15T08:05:28;28.00;;;21.77;;
40515;SDS011;26216;53.724;9.898;2023-04-15T08:07:54;28.27;;;22.88;;
40515;SDS011;26216;53.724;9.898;2023-04-15T08:10:20;25.73;;;20.83;;
40515;SDS011;26216;53.724;9.898;2023-04-15T08:12:47;24.58;;;17.65;;
40515;SDS011;26216;53.724;9.898;2023-04-15T08:15:13;28.45;;;21.35;;
40515;SDS011;26216;53.724;9.898;2023-04-15T08:17:39;29.75;;;23.10;;
40515;SDS011;26216;53.724;9.898;2023-04-15T08:20:06;29.55;;;22.33;;
40515;SDS011;26216;53.724;9.898;2023-04-15T08:22:32;23.67;;;17.92;;
40515;SDS011;26216;53.724;9.898;2023-04-15T08:24:59;31.25;;;22.38;;
40515;SDS011;26216;53.724;9.898;2023-04-15T08:27:24;24.98;;;20.30;;
40515;SDS011;26216;53.724;9.898;2023-04-15T08:29:51;28.60;;;21.63;;
40515;SDS011;26216;53.724;9.898;2023-04-15T08:32:17;30.48;;;21.85;;
40515;SDS011;26216;53.724;9.898;2023-04-15T08:34:43;23.02;;;17.70;;
40515;SDS011;26216;53.724;9.898;2023-04-15T08:37:09;30.05;;;22.73;;
40515;SDS011;26216;53.724;9.898;2023-04-15T08:39:35;27.98;;;20.77;;
40515;SDS011;26216;53.724;9.898;2023-04-15T08:42:01;32.50;;;23.27;;
40515;SDS011;26216;53.724;9.898;2023-04-15T08:44:34;29.30;;;21.48;;
40515;SDS011;26216;53.724;9.898;2023-04-15T08:47:03;27.88;;;20.50;;
40515;SDS011;26216;53.724;9.898;2023-04-15T08:49:32;27.27;;;20.10;;
40515;SDS011;26216;53.724;9.898;2023-04-15T08:52:26;29.80;;;23.05;;
40515;SDS011;26216;53.724;9.898;2023-04-15T08:54:56;29.25;;;20.73;;
40515;SDS011;26216;53.724;9.898;2023-04-15T08:57:25;25.23;;;19.02;;
40515;SDS011;26216;53.724;9.898;2023-04-15T08:59:55;25.00;;;19.02;;
40515;SDS011;26216;53.724;9.898;2023-04-15T09:02:22;22.63;;;17.15;;
40515;SDS011;26216;53.724;9.898;2023-04-15T09:04:52;26.73;;;20.17;;
40515;SDS011;26216;53.724;9.898;2023-04-15T09:07:19;33.05;;;24.42;;
40515;SDS011;26216;53.724;9.898;2023-04-15T09:09:45;25.05;;;19.38;;
40515;SDS011;26216;53.724;9.898;2023-04-15T09:12:12;36.13;;;25.67;;
40515;SDS011;26216;53.724;9.898;2023-04-15T09:14:42;30.77;;;22.92;;
40515;SDS011;26216;53.724;9.898;2023-04-15T09:17:09;25.27;;;18.80;;
40515;SDS011;26216;53.724;9.898;2023-04-15T09:19:36;25.95;;;19.15;;
40515;SDS011;26216;53.724;9.898;2023-04-15T09:22:02;29.23;;;22.67;;
40515;SDS011;26216;53.724;9.898;2023-04-15T09:24:38;27.05;;;20.05;;
40515;SDS011;26216;53.724;9.898;2023-04-15T09:27:06;24.65;;;18.67;;
40515;SDS011;26216;53.724;9.898;2023-04-15T09:29:32;31.42;;;23.83;;
40515;SDS011;26216;53.724;9.898;2023-04-15T09:32:14;30.23;;;22.73;;
40515;SDS011;26216;53.724;9.898;2023-04-15T09:34:40;26.38;;;20.10;;
40515;SDS011;26216;53.724;9.898;2023-04-15T09:37:07;25.45;;;19.10;;
40515;SDS011;26216;53.724;9.898;2023-04-15T09:39:44;24.90;;;17.75;;
40515;SDS011;26216;53.724;9.898;2023-04-15T09:42:15;19.17;;;15.98;;
40515;SDS011;26216;53.724;9.898;2023-04-15T09:44:51;25.35;;;19.98;;
40515;SDS011;26216;53.724;9.898;2023-04-15T09:47:30;28.10;;;22.08;;
40515;SDS011;26216;53.724;9.898;2023-04-15T09:49:57;24.95;;;18.10;;
40515;SDS011;26216;53.724;9.898;2023-04-15T09:52:24;25.13;;;18.50;;
40515;SDS011;26216;53.724;9.898;2023-04-15T09:54:52;25.83;;;18.67;;
40515;SDS011;26216;53.724;9.898;2023-04-15T09:59:50;24.67;;;19.33;;
40515;SDS011;26216;53.724;9.898;2023-04-15T10:02:17;26.63;;;21.30;;
40515;SDS011;26216;53.724;9.898;2023-04-15T10:04:44;25.17;;;19.83;;
40515;SDS011;26216;53.724;9.898;2023-04-15T10:07:13;24.05;;;18.90;;
40515;SDS011;26216;53.724;9.898;2023-04-15T10:09:40;19.63;;;16.05;;
40515;SDS011;26216;53.724;9.898;2023-04-15T10:12:09;20.23;;;16.13;;
40515;SDS011;26216;53.724;9.898;2023-04-15T10:14:36;23.35;;;19.15;;
40515;SDS011;26216;53.724;9.898;2023-04-15T10:17:04;23.85;;;19.67;;
40515;SDS011;26216;53.724;9.898;2023-04-15T10:19:32;21.30;;;16.88;;
40515;SDS011;26216;53.724;9.898;2023-04-15T10:22:00;19.95;;;16.70;;
40515;SDS011;26216;53.724;9.898;2023-04-15T10:24:31;17.75;;;15.30;;
40515;SDS011;26216;53.724;9.898;2023-04-15T10:26:59;18.02;;;14.38;;
40515;SDS011;26216;53.724;9.898;2023-04-15T10:29:25;22.75;;;17.15;;
40515;SDS011;26216;53.724;9.898;2023-04-15T10:31:56;20.42;;;16.42;;
40515;SDS011;26216;53.724;9.898;2023-04-15T10:34:24;21.17;;;17.35;;
40515;SDS011;26216;53.724;9.898;2023-04-15T10:36:54;18.20;;;15.65;;
40515;SDS011;26216;53.724;9.898;2023-04-15T10:42:07;18.65;;;15.50;;
40515;SDS011;26216;53.724;9.898;2023-04-15T10:44:38;16.02;;;13.13;;
40515;SDS011;26216;53.724;9.898;2023-04-15T10:47:17;14.30;;;12.30;;
40515;SDS011;26216;53.724;9.898;2023-04-15T10:49:58;15.90;;;13.38;;
40515;SDS011;26216;53.724;9.898;2023-04-15T10:52:26;16.52;;;13.75;;
40515;SDS011;26216;53.724;9.898;2023-04-15T10:57:54;17.40;;;13.48;;
40515;SDS011;26216;53.724;9.898;2023-04-15T11:00:29;13.13;;;11.60;;
40515;SDS011;26216;53.724;9.898;2023-04-15T11:02:57;12.70;;;10.73;;
40515;SDS011;26216;53.724;9.898;2023-04-15T11:08:07;13.18;;;11.77;;
40515;SDS011;26216;53.724;9.898;2023-04-15T11:13:01;12.15;;;10.85;;
40515;SDS011;26216;53.724;9.898;2023-04-15T11:18:07;15.23;;;12.25;;
40515;SDS011;26216;53.724;9.898;2023-04-15T11:20:38;12.32;;;10.85;;
40515;SDS011;26216;53.724;9.898;2023-04-15T11:23:05;11.68;;;9.68;;
40515;SDS011;26216;53.724;9.898;2023-04-15T11:25:32;12.55;;;10.25;;
40515;SDS011;26216;53.724;9.898;2023-04-15T11:28:02;8.55;;;7.65;;
40515;SDS011;26216;53.724;9.898;2023-04-15T11:30:30;11.13;;;8.40;;
40515;SDS011;26216;53.724;9.898;2023-04-15T11:32:59;10.57;;;8.65;;
40515;SDS011;26216;53.724;9.898;2023-04-15T11:35:26;9.48;;;7.80;;
40515;SDS011;26216;53.724;9.898;2023-04-15T11:37:53;11.23;;;8.40;;
40515;SDS011;26216;53.724;9.898;2023-04-15T11:40:23;12.88;;;10.02;;
40515;SDS011;26216;53.724;9.898;2023-04-15T11:43:10;10.63;;;8.82;;
40515;SDS011;26216;53.724;9.898;2023-04-15T11:45:46;9.32;;;8.27;;
40515;SDS011;26216;53.724;9.898;2023-04-15T11:48:24;7.82;;;7.03;;
40515;SDS011;26216;53.724;9.898;2023-04-15T11:50:52;9.00;;;7.32;;
40515;SDS011;26216;53.724;9.898;2023-04-15T11:53:35;7.25;;;6.25;;
40515;SDS011;26216;53.724;9.898;2023-04-15T11:56:18;7.20;;;6.22;;
40515;SDS011;26216;53.724;9.898;2023-04-15T11:58:46;6.65;;;5.95;;
40515;SDS011;26216;53.724;9.898;2023-04-15T12:01:15;6.70;;;5.57;;
40515;SDS011;26216;53.724;9.898;2023-04-15T12:03:42;6.45;;;5.72;;
40515;SDS011;26216;53.724;9.898;2023-04-15T12:06:14;6.57;;;5.93;;
40515;SDS011;26216;53.724;9.898;2023-04-15T12:11:35;6.97;;;5.60;;
40515;SDS011;26216;53.724;9.898;2023-04-15T12:14:09;6.38;;;5.70;;
40515;SDS011;26216;53.724;9.898;2023-04-15T12:16:43;6.18;;;5.55;;
40515;SDS011;26216;53.724;9.898;2023-04-15T12:19:11;8.35;;;5.97;;
40515;SDS011;26216;53.724;9.898;2023-04-15T12:21:43;7.65;;;6.43;;
40515;SDS011;26216;53.724;9.898;2023-04-15T12:24:11;7.80;;;7.00;;
40515;SDS011;26216;53.724;9.898;2023-04-15T12:26:45;6.00;;;5.40;;
40515;SDS011;26216;53.724;9.898;2023-04-15T12:29:19;8.10;;;6.47;;
40515;SDS011;26216;53.724;9.898;2023-04-15T12:31:50;6.97;;;6.07;;
40515;SDS011;26216;53.724;9.898;2023-04-15T12:34:18;7.60;;;5.70;;
40515;SDS011;26216;53.724;9.898;2023-04-15T12:36:54;6.53;;;5.82;;
40515;SDS011;26216;53.724;9.898;2023-04-15T12:39:22;5.97;;;5.38;;
40515;SDS011;26216;53.724;9.898;2023-04-15T12:41:53;6.97;;;5.90;;
40515;SDS011;26216;53.724;9.898;2023-04-15T12:44:21;6.75;;;5.95;;
40515;SDS011;26216;53.724;9.898;2023-04-15T12:46:48;8.88;;;6.78;;
40515;SDS011;26216;53.724;9.898;2023-04-15T12:49:18;7.18;;;6.20;;
40515;SDS011;26216;53.724;9.898;2023-04-15T12:51:48;8.10;;;7.20;;
40515;SDS011;26216;53.724;9.898;2023-04-15T12:54:16;9.73;;;8.07;;
40515;SDS011;26216;53.724;9.898;2023-04-15T12:56:43;9.20;;;7.70;;
40515;SDS011;26216;53.724;9.898;2023-04-15T12:59:10;8.10;;;7.00;;
40515;SDS011;26216;53.724;9.898;2023-04-15T13:01:37;7.95;;;7.03;;
40515;SDS011;26216;53.724;9.898;2023-04-15T13:04:05;7.15;;;6.45;;
40515;SDS011;26216;53.724;9.898;2023-04-15T13:06:32;7.95;;;6.47;;
40515;SDS011;26216;53.724;9.898;2023-04-15T13:08:59;6.18;;;5.57;;
40515;SDS011;26216;53.724;9.898;2023-04-15T13:11:26;7.45;;;6.05;;
40515;SDS011;26216;53.724;9.898;2023-04-15T13:13:55;7.10;;;6.40;;
40515;SDS011;26216;53.724;9.898;2023-04-15T13:16:22;8.00;;;7.00;;
40515;SDS011;26216;53.724;9.898;2023-04-15T13:18:48;8.10;;;7.10;;
40515;SDS011;26216;53.724;9.898;2023-04-15T13:21:15;8.30;;;6.60;;
40515;SDS011;26216;53.724;9.898;2023-04-15T13:23:41;8.82;;;6.22;;
40515;SDS011;26216;53.724;9.898;2023-04-15T13:26:06;8.50;;;6.93;;
40515;SDS011;26216;53.724;9.898;2023-04-15T13:28:33;7.82;;;7.03;;
40515;SDS011;26216;53.724;9.898;2023-04-15T13:30:59;6.40;;;5.70;;
40515;SDS011;26216;53.724;9.898;2023-04-15T13:33:25;8.27;;;7.25;;
40515;SDS011;26216;53.724;9.898;2023-04-15T13:35:52;7.03;;;6.32;;
40515;SDS011;26216;53.724;9.898;2023-04-15T13:38:18;6.82;;;5.75;;
40515;SDS011;26216;53.724;9.898;2023-04-15T13:40:44;7.68;;;6.45;;
40515;SDS011;26216;53.724;9.898;2023-04-15T13:43:10;7.10;;;6.38;;
40515;SDS011;26216;53.724;9.898;2023-04-15T13:45:36;6.93;;;6.20;;
40515;SDS011;26216;53.724;9.898;2023-04-15T13:48:04;7.38;;;6.63;;
40515;SDS011;26216;53.724;9.898;2023-04-15T13:50:30;7.57;;;6.78;;
40515;SDS011;26216;53.724;9.898;2023-04-15T13:52:56;7.70;;;6.57;;
40515;SDS011;26216;53.724;9.898;2023-04-15T13:55:22;9.02;;;7.60;;
40515;SDS011;26216;53.724;9.898;2023-04-15T13:57:48;7.97;;;6.65;;
40515;SDS011;26216;53.724;9.898;2023-04-15T14:00:14;8.70;;;7.80;;
40515;SDS011;26216;53.724;9.898;2023-04-15T14:02:40;8.32;;;7.40;;
40515;SDS011;26216;53.724;9.898;2023-04-15T14:05:07;7.57;;;6.38;;
40515;SDS011;26216;53.724;9.898;2023-04-15T14:07:33;9.63;;;7.50;;
40515;SDS011;26216;53.724;9.898;2023-04-15T14:09:59;9.10;;;6.75;;
40515;SDS011;26216;53.724;9.898;2023-04-15T14:12:25;7.25;;;6.50;;
40515;SDS011;26216;53.724;9.898;2023-04-15T14:14:51;7.03;;;6.30;;
40515;SDS011;26216;53.724;9.898;2023-04-15T14:17:17;6.95;;;6.25;;
40515;SDS011;26216;53.724;9.898;2023-04-15T14:19:45;8.00;;;6.90;;
40515;SDS011;26216;53.724;9.898;2023-04-15T14:22:11;6.88;;;6.15;;
40515;SDS011;26216;53.724;9.898;2023-04-15T14:24:37;6.28;;;5.65;;
40515;SDS011;26216;53.724;9.898;2023-04-15T14:27:05;8.38;;;6.35;;
40515;SDS011;26216;53.724;9.898;2023-04-15T14:29:33;6.97;;;6.10;;
40515;SDS011;26216;53.724;9.898;2023-04-15T14:31:59;8.05;;;6.43;;
40515;SDS011;26216;53.724;9.898;2023-04-15T14:34:25;7.47;;;6.18;;
40515;SDS011;26216;53.724;9.898;2023-04-15T14:36:51;7.72;;;6.03;;
40515;SDS011;26216;53.724;9.898;2023-04-15T14:39:20;7.88;;;6.30;;
40515;SDS011;26216;53.724;9.898;2023-04-15T14:41:48;7.55;;;5.35;;
40515;SDS011;26216;53.724;9.898;2023-04-15T14:44:14;6.28;;;5.47;;
40515;SDS011;26216;53.724;9.898;2023-04-15T14:46:40;6.47;;;5.60;;
40515;SDS011;26216;53.724;9.898;2023-04-15T14:49:06;8.00;;;6.57;;
40515;SDS011;26216;53.724;9.898;2023-04-15T14:51:32;6.53;;;5.47;;
40515;SDS011;26216;53.724;9.898;2023-04-15T14:53:58;6.28;;;5.63;;
40515;SDS011;26216;53.724;9.898;2023-04-15T14:56:25;7.18;;;6.10;;